sensor_id;sensor_type;location;lat;lon;timestamp;temperature;humidity
18085;DHT22;9169;44.492;11.372;2023-08-12T00:00:15;28.00;40.80
18085;DHT22;9169;44.492;11.372;2023-08-12T00:02:46;28.00;40.60
18085;DHT22;9169;44.492;11.372;2023-08-12T00:05:15;28.00;40.70
18085;DHT22;9169;44.492;11.372;2023-08-12T00:07:43;28.00;40.80
18085;DHT22;9169;44.492;11.372;2023-08-12T00:10:12;28.00;41.10
18085;DHT22;9169;44.492;11.372;2023-08-12T00:12:41;28.00;41.30
18085;DHT22;9169;44.492;11.372;2023-08-12T00:15:11;27.90;41.30
18085;DHT22;9169;44.492;11.372;2023-08-12T00:17:40;27.90;41.40
18085;DHT22;9169;44.492;11.372;2023-08-12T00:20:10;27.80;41.30
18085;DHT22;9169;44.492;11.372;2023-08-12T00:22:40;27.70;41.10
18085;DHT22;9169;44.492;11.372;2023-08-12T00:25:08;27.80;41.10
18085;DHT22;9169;44.492;11.372;2023-08-12T00:27:37;27.80;41.10
18085;DHT22;9169;44.492;11.372;2023-08-12T00:30:06;27.80;41.00
18085;DHT22;9169;44.492;11.372;2023-08-12T00:32:37;27.80;41.10
18085;DHT22;9169;44.492;11.372;2023-08-12T00:35:06;27.80;41.00
18085;DHT22;9169;44.492;11.372;2023-08-12T00:37:35;27.80;41.00
18085;DHT22;9169;44.492;11.372;2023-08-12T00:40:04;27.80;41.10
18085;DHT22;9169;44.492;11.372;2023-08-12T00:42:33;27.70;41.30
18085;DHT22;9169;44.492;11.372;2023-08-12T00:45:02;27.70;41.30
18085;DHT22;9169;44.492;11.372;2023-08-12T00:47:31;27.70;41.20
18085;DHT22;9169;44.492;11.372;2023-08-12T00:50:01;27.70;41.30
18085;DHT22;9169;44.492;11.372;2023-08-12T00:52:32;27.70;41.40
18085;DHT22;9169;44.492;11.372;2023-08-12T00:55:00;27.60;41.50
18085;DHT22;9169;44.492;11.372;2023-08-12T00:57:29;27.60;41.40
18085;DHT22;9169;44.492;11.372;2023-08-12T00:59:58;27.60;41.50
18085;DHT22;9169;44.492;11.372;2023-08-12T01:02:28;27.60;41.50
18085;DHT22;9169;44.492;11.372;2023-08-12T01:04:58;27.60;41.50
18085;DHT22;9169;44.492;11.372;2023-08-12T01:07:28;27.50;41.40
18085;DHT22;9169;44.492;11.372;2023-08-12T01:09:56;27.50;41.30
18085;DHT22;9169;44.492;11.372;2023-08-12T01:12:30;27.50;41.40
18085;DHT22;9169;44.492;11.372;2023-08-12T01:15:04;27.50;41.40
18085;DHT22;9169;44.492;11.372;2023-08-12T01:17:37;27.50;41.40
18085;DHT22;9169;44.492;11.372;2023-08-12T01:20:08;27.40;41.40
18085;DHT22;9169;44.492;11.372;2023-08-12T01:22:41;27.40;41.30
18085;DHT22;9169;44.492;11.372;2023-08-12T01:25:13;27.40;41.30
18085;DHT22;9169;44.492;11.372;2023-08-12T01:27:42;27.40;41.40
18085;DHT22;9169;44.492;11.372;2023-08-12T01:30:11;27.30;41.60
18085;DHT22;9169;44.492;11.372;2023-08-12T01:32:45;27.30;41.80
18085;DHT22;9169;44.492;11.372;2023-08-12T01:35:20;27.20;42.10
18085;DHT22;9169;44.492;11.372;2023-08-12T01:37:51;27.20;42.10
18085;DHT22;9169;44.492;11.372;2023-08-12T01:40:24;27.20;41.90
18085;DHT22;9169;44.492;11.372;2023-08-12T01:42:53;27.20;42.00
18085;DHT22;9169;44.492;11.372;2023-08-12T01:45:22;27.10;41.90
18085;DHT22;9169;44.492;11.372;2023-08-12T01:47:51;27.10;41.80
18085;DHT22;9169;44.492;11.372;2023-08-12T01:50:21;27.10;42.30
18085;DHT22;9169;44.492;11.372;2023-08-12T01:52:50;27.10;42.10
18085;DHT22;9169;44.492;11.372;2023-08-12T01:55:19;27.00;42.20
18085;DHT22;9169;44.492;11.372;2023-08-12T01:57:50;26.90;42.20
18085;DHT22;9169;44.492;11.372;2023-08-12T02:00:19;26.90;42.60
18085;DHT22;9169;44.492;11.372;2023-08-12T02:02:48;26.80;42.60
18085;DHT22;9169;44.492;11.372;2023-08-12T02:05:16;26.80;42.60
18085;DHT22;9169;44.492;11.372;2023-08-12T02:07:45;26.80;42.40
18085;DHT22;9169;44.492;11.372;2023-08-12T02:10:14;26.80;42.70
18085;DHT22;9169;44.492;11.372;2023-08-12T02:12:43;26.80;42.40
18085;DHT22;9169;44.492;11.372;2023-08-12T02:15:13;26.80;42.30
18085;DHT22;9169;44.492;11.372;2023-08-12T02:17:42;26.80;42.90
18085;DHT22;9169;44.492;11.372;2023-08-12T02:20:11;26.80;42.40
18085;DHT22;9169;44.492;11.372;2023-08-12T02:22:39;26.80;42.30
18085;DHT22;9169;44.492;11.372;2023-08-12T02:25:08;26.80;42.30
18085;DHT22;9169;44.492;11.372;2023-08-12T02:27:39;26.80;42.30
18085;DHT22;9169;44.492;11.372;2023-08-12T02:30:09;26.80;42.30
18085;DHT22;9169;44.492;11.372;2023-08-12T02:32:38;26.80;42.50
18085;DHT22;9169;44.492;11.372;2023-08-12T02:35:10;26.80;42.60
18085;DHT22;9169;44.492;11.372;2023-08-12T02:37:39;26.80;42.50
18085;DHT22;9169;44.492;11.372;2023-08-12T02:40:09;26.80;42.40
18085;DHT22;9169;44.492;11.372;2023-08-12T02:42:37;26.80;42.60
18085;DHT22;9169;44.492;11.372;2023-08-12T02:45:06;26.80;42.90
18085;DHT22;9169;44.492;11.372;2023-08-12T02:47:35;26.80;43.10
18085;DHT22;9169;44.492;11.372;2023-08-12T02:50:07;26.80;43.30
18085;DHT22;9169;44.492;11.372;2023-08-12T02:52:35;26.70;43.50
18085;DHT22;9169;44.492;11.372;2023-08-12T02:55:04;26.70;43.30
18085;DHT22;9169;44.492;11.372;2023-08-12T02:57:33;26.70;43.50
18085;DHT22;9169;44.492;11.372;2023-08-12T03:00:02;26.70;43.60
18085;DHT22;9169;44.492;11.372;2023-08-12T03:02:32;26.70;43.60
18085;DHT22;9169;44.492;11.372;2023-08-12T03:05:01;26.60;43.90
18085;DHT22;9169;44.492;11.372;2023-08-12T03:07:31;26.60;43.70
18085;DHT22;9169;44.492;11.372;2023-08-12T03:10:01;26.60;43.60
18085;DHT22;9169;44.492;11.372;2023-08-12T03:12:30;26.60;43.80
18085;DHT22;9169;44.492;11.372;2023-08-12T03:14:58;26.60;43.80
18085;DHT22;9169;44.492;11.372;2023-08-12T03:17:27;26.50;43.70
18085;DHT22;9169;44.492;11.372;2023-08-12T03:19:57;26.50;43.70
18085;DHT22;9169;44.492;11.372;2023-08-12T03:22:28;26.50;43.80
18085;DHT22;9169;44.492;11.372;2023-08-12T03:24:59;26.50;43.90
18085;DHT22;9169;44.492;11.372;2023-08-12T03:27:28;26.40;43.90
18085;DHT22;9169;44.492;11.372;2023-08-12T03:29:56;26.40;44.00
18085;DHT22;9169;44.492;11.372;2023-08-12T03:32:25;26.40;44.10
18085;DHT22;9169;44.492;11.372;2023-08-12T03:34:55;26.40;44.30
18085;DHT22;9169;44.492;11.372;2023-08-12T03:37:24;26.30;44.40
18085;DHT22;9169;44.492;11.372;2023-08-12T03:39:54;26.30;44.50
18085;DHT22;9169;44.492;11.372;2023-08-12T03:42:24;26.20;44.70
18085;DHT22;9169;44.492;11.372;2023-08-12T03:44:53;26.20;44.70
18085;DHT22;9169;44.492;11.372;2023-08-12T03:47:21;26.20;44.70
18085;DHT22;9169;44.492;11.372;2023-08-12T03:49:52;26.20;44.80
18085;DHT22;9169;44.492;11.372;2023-08-12T03:52:22;26.20;45.00
18085;DHT22;9169;44.492;11.372;2023-08-12T03:54:51;26.10;45.00
18085;DHT22;9169;44.492;11.372;2023-08-12T03:57:21;26.10;45.00
18085;DHT22;9169;44.492;11.372;2023-08-12T03:59:52;26.00;45.40
18085;DHT22;9169;44.492;11.372;2023-08-12T04:02:20;26.00;45.50
18085;DHT22;9169;44.492;11.372;2023-08-12T04:04:49;25.90;45.70
18085;DHT22;9169;44.492;11.372;2023-08-12T04:07:18;25.90;45.70
18085;DHT22;9169;44.492;11.372;2023-08-12T04:09:46;25.80;45.70
18085;DHT22;9169;44.492;11.372;2023-08-12T04:12:15;25.80;45.50
18085;DHT22;9169;44.492;11.372;2023-08-12T04:14:43;25.80;45.60
18085;DHT22;9169;44.492;11.372;2023-08-12T04:17:14;25.80;45.30
18085;DHT22;9169;44.492;11.372;2023-08-12T04:19:42;25.80;45.40
18085;DHT22;9169;44.492;11.372;2023-08-12T04:22:11;25.80;45.60
18085;DHT22;9169;44.492;11.372;2023-08-12T04:24:42;25.70;46.00
18085;DHT22;9169;44.492;11.372;2023-08-12T04:27:11;25.70;46.30
18085;DHT22;9169;44.492;11.372;2023-08-12T04:29:39;25.70;46.00
18085;DHT22;9169;44.492;11.372;2023-08-12T04:32:08;25.70;45.90
18085;DHT22;9169;44.492;11.372;2023-08-12T04:34:41;25.70;46.10
18085;DHT22;9169;44.492;11.372;2023-08-12T04:37:11;25.70;46.50
18085;DHT22;9169;44.492;11.372;2023-08-12T04:39:39;25.60;46.50
18085;DHT22;9169;44.492;11.372;2023-08-12T04:42:10;25.60;46.50
18085;DHT22;9169;44.492;11.372;2023-08-12T04:44:39;25.60;46.40
18085;DHT22;9169;44.492;11.372;2023-08-12T04:47:08;25.60;46.80
18085;DHT22;9169;44.492;11.372;2023-08-12T04:49:37;25.60;46.70
18085;DHT22;9169;44.492;11.372;2023-08-12T04:52:08;25.60;46.50
18085;DHT22;9169;44.492;11.372;2023-08-12T04:54:37;25.60;46.60
18085;DHT22;9169;44.492;11.372;2023-08-12T04:57:05;25.60;46.60
18085;DHT22;9169;44.492;11.372;2023-08-12T04:59:34;25.60;46.50
18085;DHT22;9169;44.492;11.372;2023-08-12T05:02:03;25.60;46.40
18085;DHT22;9169;44.492;11.372;2023-08-12T05:04:34;25.70;46.30
18085;DHT22;9169;44.492;11.372;2023-08-12T05:07:02;25.70;46.20
18085;DHT22;9169;44.492;11.372;2023-08-12T05:09:32;25.80;46.30
18085;DHT22;9169;44.492;11.372;2023-08-12T05:12:01;25.80;46.20
18085;DHT22;9169;44.492;11.372;2023-08-12T05:14:30;25.80;46.10
18085;DHT22;9169;44.492;11.372;2023-08-12T05:16:59;25.90;46.10
18085;DHT22;9169;44.492;11.372;2023-08-12T05:19:27;25.90;46.10
18085;DHT22;9169;44.492;11.372;2023-08-12T05:21:56;26.00;46.10
18085;DHT22;9169;44.492;11.372;2023-08-12T05:24:25;26.00;46.10
18085;DHT22;9169;44.492;11.372;2023-08-12T05:26:55;26.00;46.20
18085;DHT22;9169;44.492;11.372;2023-08-12T05:29:24;26.00;46.40
18085;DHT22;9169;44.492;11.372;2023-08-12T05:31:53;25.90;46.40
18085;DHT22;9169;44.492;11.372;2023-08-12T05:34:22;25.90;46.40
18085;DHT22;9169;44.492;11.372;2023-08-12T05:36:50;25.90;46.30
18085;DHT22;9169;44.492;11.372;2023-08-12T05:39:19;26.00;46.30
18085;DHT22;9169;44.492;11.372;2023-08-12T05:41:47;26.00;46.20
18085;DHT22;9169;44.492;11.372;2023-08-12T05:44:18;26.00;46.00
18085;DHT22;9169;44.492;11.372;2023-08-12T05:46:46;26.10;45.90
18085;DHT22;9169;44.492;11.372;2023-08-12T05:49:15;26.10;45.70
18085;DHT22;9169;44.492;11.372;2023-08-12T05:51:43;26.20;45.90
18085;DHT22;9169;44.492;11.372;2023-08-12T05:54:12;26.00;45.70
18085;DHT22;9169;44.492;11.372;2023-08-12T05:56:41;26.20;45.90
18085;DHT22;9169;44.492;11.372;2023-08-12T05:59:09;26.20;45.80
18085;DHT22;9169;44.492;11.372;2023-08-12T06:01:39;26.20;45.70
18085;DHT22;9169;44.492;11.372;2023-08-12T06:04:08;26.20;45.70
18085;DHT22;9169;44.492;11.372;2023-08-12T06:06:37;26.30;45.60
18085;DHT22;9169;44.492;11.372;2023-08-12T06:09:05;26.30;45.50
18085;DHT22;9169;44.492;11.372;2023-08-12T06:11:34;26.40;45.60
18085;DHT22;9169;44.492;11.372;2023-08-12T06:14:03;26.40;45.60
18085;DHT22;9169;44.492;11.372;2023-08-12T06:16:32;26.40;45.70
18085;DHT22;9169;44.492;11.372;2023-08-12T06:19:02;26.40;45.70
18085;DHT22;9169;44.492;11.372;2023-08-12T06:21:30;26.40;45.70
18085;DHT22;9169;44.492;11.372;2023-08-12T06:23:59;26.50;45.70
18085;DHT22;9169;44.492;11.372;2023-08-12T06:26:27;26.50;45.70
18085;DHT22;9169;44.492;11.372;2023-08-12T06:28:56;26.60;45.70
18085;DHT22;9169;44.492;11.372;2023-08-12T06:31:25;26.60;45.70
18085;DHT22;9169;44.492;11.372;2023-08-12T06:33:53;26.70;45.70
18085;DHT22;9169;44.492;11.372;2023-08-12T06:36:23;26.70;45.80
18085;DHT22;9169;44.492;11.372;2023-08-12T06:38:52;26.70;45.80
18085;DHT22;9169;44.492;11.372;2023-08-12T06:41:21;26.80;45.80
18085;DHT22;9169;44.492;11.372;2023-08-12T06:43:49;26.80;45.90
18085;DHT22;9169;44.492;11.372;2023-08-12T06:46:18;26.80;45.80
18085;DHT22;9169;44.492;11.372;2023-08-12T06:48:47;26.90;45.80
18085;DHT22;9169;44.492;11.372;2023-08-12T06:51:15;26.90;45.90
18085;DHT22;9169;44.492;11.372;2023-08-12T06:53:45;26.90;45.70
18085;DHT22;9169;44.492;11.372;2023-08-12T06:56:14;26.90;45.80
18085;DHT22;9169;44.492;11.372;2023-08-12T06:58:42;27.00;45.80
18085;DHT22;9169;44.492;11.372;2023-08-12T07:01:11;27.00;45.90
18085;DHT22;9169;44.492;11.372;2023-08-12T07:03:41;27.00;45.80
18085;DHT22;9169;44.492;11.372;2023-08-12T07:06:10;27.10;45.70
18085;DHT22;9169;44.492;11.372;2023-08-12T07:08:38;27.10;45.60
18085;DHT22;9169;44.492;11.372;2023-08-12T07:11:08;27.10;45.70
18085;DHT22;9169;44.492;11.372;2023-08-12T07:13:37;27.20;45.90
18085;DHT22;9169;44.492;11.372;2023-08-12T07:16:06;27.20;46.00
18085;DHT22;9169;44.492;11.372;2023-08-12T07:18:34;27.20;45.90
18085;DHT22;9169;44.492;11.372;2023-08-12T07:21:03;27.30;46.10
18085;DHT22;9169;44.492;11.372;2023-08-12T07:23:32;27.30;46.00
18085;DHT22;9169;44.492;11.372;2023-08-12T07:26:01;27.30;46.10
18085;DHT22;9169;44.492;11.372;2023-08-12T07:28:31;27.40;46.20
18085;DHT22;9169;44.492;11.372;2023-08-12T07:31:01;27.40;46.30
18085;DHT22;9169;44.492;11.372;2023-08-12T07:33:30;27.40;46.20
18085;DHT22;9169;44.492;11.372;2023-08-12T07:35:59;27.50;46.30
18085;DHT22;9169;44.492;11.372;2023-08-12T07:38:27;27.50;46.30
18085;DHT22;9169;44.492;11.372;2023-08-12T07:40:56;27.50;46.30
18085;DHT22;9169;44.492;11.372;2023-08-12T07:43:25;27.60;46.20
18085;DHT22;9169;44.492;11.372;2023-08-12T07:45:55;27.60;46.20
18085;DHT22;9169;44.492;11.372;2023-08-12T07:48:37;27.60;46.20
18085;DHT22;9169;44.492;11.372;2023-08-12T07:51:06;27.60;46.20
18085;DHT22;9169;44.492;11.372;2023-08-12T07:53:35;27.70;46.20
18085;DHT22;9169;44.492;11.372;2023-08-12T07:56:03;27.70;46.20
18085;DHT22;9169;44.492;11.372;2023-08-12T07:58:32;27.80;46.20
18085;DHT22;9169;44.492;11.372;2023-08-12T08:01:02;27.80;46.20
18085;DHT22;9169;44.492;11.372;2023-08-12T08:03:32;27.80;46.10
18085;DHT22;9169;44.492;11.372;2023-08-12T08:06:00;27.90;46.00
18085;DHT22;9169;44.492;11.372;2023-08-12T08:08:29;27.90;45.90
18085;DHT22;9169;44.492;11.372;2023-08-12T08:10:58;27.90;46.20
18085;DHT22;9169;44.492;11.372;2023-08-12T08:13:26;28.00;45.90
18085;DHT22;9169;44.492;11.372;2023-08-12T08:15:55;28.00;45.90
18085;DHT22;9169;44.492;11.372;2023-08-12T08:18:25;28.00;45.90
18085;DHT22;9169;44.492;11.372;2023-08-12T08:20:54;28.10;46.00
18085;DHT22;9169;44.492;11.372;2023-08-12T08:23:22;28.10;45.90
18085;DHT22;9169;44.492;11.372;2023-08-12T08:25:53;28.10;45.60
18085;DHT22;9169;44.492;11.372;2023-08-12T08:28:22;28.20;45.70
18085;DHT22;9169;44.492;11.372;2023-08-12T08:30:51;28.20;45.70
18085;DHT22;9169;44.492;11.372;2023-08-12T08:33:19;28.30;45.90
18085;DHT22;9169;44.492;11.372;2023-08-12T08:35:49;28.30;45.70
18085;DHT22;9169;44.492;11.372;2023-08-12T08:38:18;28.30;45.70
18085;DHT22;9169;44.492;11.372;2023-08-12T08:40:49;28.40;45.60
18085;DHT22;9169;44.492;11.372;2023-08-12T08:43:20;28.40;45.60
18085;DHT22;9169;44.492;11.372;2023-08-12T08:45:50;28.40;45.30
18085;DHT22;9169;44.492;11.372;2023-08-12T08:48:21;28.40;45.30
18085;DHT22;9169;44.492;11.372;2023-08-12T08:50:51;28.50;45.30
18085;DHT22;9169;44.492;11.372;2023-08-12T08:53:20;28.50;45.40
18085;DHT22;9169;44.492;11.372;2023-08-12T08:55:49;28.60;45.40
18085;DHT22;9169;44.492;11.372;2023-08-12T08:58:18;28.70;45.30
18085;DHT22;9169;44.492;11.372;2023-08-12T09:00:47;28.70;45.20
18085;DHT22;9169;44.492;11.372;2023-08-12T09:03:16;28.70;45.00
18085;DHT22;9169;44.492;11.372;2023-08-12T09:05:45;28.80;45.00
18085;DHT22;9169;44.492;11.372;2023-08-12T09:08:16;28.80;45.00
18085;DHT22;9169;44.492;11.372;2023-08-12T09:10:46;28.90;45.20
18085;DHT22;9169;44.492;11.372;2023-08-12T09:13:15;28.90;45.20
18085;DHT22;9169;44.492;11.372;2023-08-12T09:15:45;29.00;45.00
18085;DHT22;9169;44.492;11.372;2023-08-12T09:18:15;29.00;44.60
18085;DHT22;9169;44.492;11.372;2023-08-12T09:20:44;29.00;44.50
18085;DHT22;9169;44.492;11.372;2023-08-12T09:23:12;29.10;44.30
18085;DHT22;9169;44.492;11.372;2023-08-12T09:25:46;29.10;44.10
18085;DHT22;9169;44.492;11.372;2023-08-12T09:28:14;29.20;44.30
18085;DHT22;9169;44.492;11.372;2023-08-12T09:30:44;29.20;44.20
18085;DHT22;9169;44.492;11.372;2023-08-12T09:33:24;29.30;44.10
18085;DHT22;9169;44.492;11.372;2023-08-12T09:35:54;29.30;43.90
18085;DHT22;9169;44.492;11.372;2023-08-12T09:38:24;29.40;44.40
18085;DHT22;9169;44.492;11.372;2023-08-12T09:40:56;29.50;43.90
18085;DHT22;9169;44.492;11.372;2023-08-12T09:43:27;29.50;43.90
18085;DHT22;9169;44.492;11.372;2023-08-12T09:45:57;29.70;44.00
18085;DHT22;9169;44.492;11.372;2023-08-12T09:48:26;29.80;44.00
18085;DHT22;9169;44.492;11.372;2023-08-12T09:50:55;29.90;43.80
18085;DHT22;9169;44.492;11.372;2023-08-12T09:53:24;30.10;43.70
18085;DHT22;9169;44.492;11.372;2023-08-12T09:55:55;30.20;43.60
18085;DHT22;9169;44.492;11.372;2023-08-12T09:58:27;30.40;43.60
18085;DHT22;9169;44.492;11.372;2023-08-12T10:00:57;30.60;43.50
18085;DHT22;9169;44.492;11.372;2023-08-12T10:03:26;30.90;43.20
18085;DHT22;9169;44.492;11.372;2023-08-12T10:05:58;31.20;43.20
18085;DHT22;9169;44.492;11.372;2023-08-12T10:08:28;31.70;42.90
18085;DHT22;9169;44.492;11.372;2023-08-12T10:10:58;32.60;42.80
18085;DHT22;9169;44.492;11.372;2023-08-12T10:13:34;33.50;41.70
18085;DHT22;9169;44.492;11.372;2023-08-12T10:16:03;34.40;40.40
18085;DHT22;9169;44.492;11.372;2023-08-12T10:18:32;35.20;39.60
18085;DHT22;9169;44.492;11.372;2023-08-12T10:21:02;35.90;38.60
18085;DHT22;9169;44.492;11.372;2023-08-12T10:23:31;36.70;37.80
18085;DHT22;9169;44.492;11.372;2023-08-12T10:26:02;37.40;37.10
18085;DHT22;9169;44.492;11.372;2023-08-12T10:28:34;38.10;36.10
18085;DHT22;9169;44.492;11.372;2023-08-12T10:31:05;38.60;35.40
18085;DHT22;9169;44.492;11.372;2023-08-12T10:33:37;39.10;34.70
18085;DHT22;9169;44.492;11.372;2023-08-12T10:36:07;39.40;33.90
18085;DHT22;9169;44.492;11.372;2023-08-12T10:38:36;39.80;33.70
18085;DHT22;9169;44.492;11.372;2023-08-12T10:41:16;40.20;33.40
18085;DHT22;9169;44.492;11.372;2023-08-12T10:43:52;40.10;32.30
18085;DHT22;9169;44.492;11.372;2023-08-12T10:46:29;39.70;32.10
18085;DHT22;9169;44.492;11.372;2023-08-12T10:49:02;39.10;31.90
18085;DHT22;9169;44.492;11.372;2023-08-12T10:51:43;38.50;32.40
18085;DHT22;9169;44.492;11.372;2023-08-12T10:54:21;37.90;32.70
18085;DHT22;9169;44.492;11.372;2023-08-12T10:57:07;37.40;32.80
18085;DHT22;9169;44.492;11.372;2023-08-12T10:59:52;37.20;33.60
18085;DHT22;9169;44.492;11.372;2023-08-12T11:02:26;36.90;33.70
18085;DHT22;9169;44.492;11.372;2023-08-12T11:04:56;36.80;33.80
18085;DHT22;9169;44.492;11.372;2023-08-12T11:07:43;36.70;33.90
18085;DHT22;9169;44.492;11.372;2023-08-12T11:10:14;36.70;33.90
18085;DHT22;9169;44.492;11.372;2023-08-12T11:12:49;37.00;34.30
18085;DHT22;9169;44.492;11.372;2023-08-12T11:15:30;37.40;34.40
18085;DHT22;9169;44.492;11.372;2023-08-12T11:18:02;37.90;33.90
18085;DHT22;9169;44.492;11.372;2023-08-12T11:20:32;38.50;34.10
18085;DHT22;9169;44.492;11.372;2023-08-12T11:23:01;39.20;32.80
18085;DHT22;9169;44.492;11.372;2023-08-12T11:25:31;39.90;32.50
18085;DHT22;9169;44.492;11.372;2023-08-12T11:28:02;40.50;31.90
18085;DHT22;9169;44.492;11.372;2023-08-12T11:30:32;41.10;30.90
18085;DHT22;9169;44.492;11.372;2023-08-12T11:33:02;41.40;29.70
18085;DHT22;9169;44.492;11.372;2023-08-12T11:35:31;41.70;29.80
18085;DHT22;9169;44.492;11.372;2023-08-12T11:37:59;42.10;29.80
18085;DHT22;9169;44.492;11.372;2023-08-12T11:40:30;42.50;29.30
18085;DHT22;9169;44.492;11.372;2023-08-12T11:43:01;42.80;29.20
18085;DHT22;9169;44.492;11.372;2023-08-12T11:45:34;43.20;28.70
18085;DHT22;9169;44.492;11.372;2023-08-12T11:48:06;43.40;28.40
18085;DHT22;9169;44.492;11.372;2023-08-12T11:50:36;43.50;28.40
18085;DHT22;9169;44.492;11.372;2023-08-12T11:53:05;43.80;28.50
18085;DHT22;9169;44.492;11.372;2023-08-12T11:55:34;44.00;28.10
18085;DHT22;9169;44.492;11.372;2023-08-12T11:58:04;44.10;28.00
18085;DHT22;9169;44.492;11.372;2023-08-12T12:00:33;44.30;27.80
18085;DHT22;9169;44.492;11.372;2023-08-12T12:03:02;44.10;27.50
18085;DHT22;9169;44.492;11.372;2023-08-12T12:05:32;44.10;27.90
18085;DHT22;9169;44.492;11.372;2023-08-12T12:08:02;44.30;28.00
18085;DHT22;9169;44.492;11.372;2023-08-12T12:10:34;44.50;27.50
18085;DHT22;9169;44.492;11.372;2023-08-12T12:13:04;44.60;27.30
18085;DHT22;9169;44.492;11.372;2023-08-12T12:15:38;44.80;27.60
18085;DHT22;9169;44.492;11.372;2023-08-12T12:18:10;45.20;27.60
18085;DHT22;9169;44.492;11.372;2023-08-12T12:20:53;45.50;27.10
18085;DHT22;9169;44.492;11.372;2023-08-12T12:23:27;45.70;27.00
18085;DHT22;9169;44.492;11.372;2023-08-12T12:26:00;45.90;26.90
18085;DHT22;9169;44.492;11.372;2023-08-12T12:28:30;46.10;26.50
18085;DHT22;9169;44.492;11.372;2023-08-12T12:30:59;46.30;26.80
18085;DHT22;9169;44.492;11.372;2023-08-12T12:33:27;46.40;26.90
18085;DHT22;9169;44.492;11.372;2023-08-12T12:35:56;46.60;26.90
18085;DHT22;9169;44.492;11.372;2023-08-12T12:38:26;46.80;26.60
18085;DHT22;9169;44.492;11.372;2023-08-12T12:40:54;46.80;26.40
18085;DHT22;9169;44.492;11.372;2023-08-12T12:43:23;46.80;26.20
18085;DHT22;9169;44.492;11.372;2023-08-12T12:45:53;46.90;25.90
18085;DHT22;9169;44.492;11.372;2023-08-12T12:48:22;46.70;25.90
18085;DHT22;9169;44.492;11.372;2023-08-12T12:50:50;46.40;26.10
18085;DHT22;9169;44.492;11.372;2023-08-12T12:53:19;46.40;25.90
18085;DHT22;9169;44.492;11.372;2023-08-12T12:55:47;46.50;26.50
18085;DHT22;9169;44.492;11.372;2023-08-12T12:58:16;46.50;26.00
18085;DHT22;9169;44.492;11.372;2023-08-12T13:00:45;46.70;25.90
18085;DHT22;9169;44.492;11.372;2023-08-12T13:03:15;46.90;25.80
18085;DHT22;9169;44.492;11.372;2023-08-12T13:05:43;47.10;26.00
18085;DHT22;9169;44.492;11.372;2023-08-12T13:08:12;47.30;25.60
18085;DHT22;9169;44.492;11.372;2023-08-12T13:10:41;47.30;25.30
18085;DHT22;9169;44.492;11.372;2023-08-12T13:13:09;47.10;24.90
18085;DHT22;9169;44.492;11.372;2023-08-12T13:15:38;47.10;25.60
18085;DHT22;9169;44.492;11.372;2023-08-12T13:18:07;47.10;25.60
18085;DHT22;9169;44.492;11.372;2023-08-12T13:20:37;47.30;25.10
18085;DHT22;9169;44.492;11.372;2023-08-12T13:23:06;47.40;25.20
18085;DHT22;9169;44.492;11.372;2023-08-12T13:25:35;47.40;25.30
18085;DHT22;9169;44.492;11.372;2023-08-12T13:28:04;47.40;25.40
18085;DHT22;9169;44.492;11.372;2023-08-12T13:30:33;47.60;25.50
18085;DHT22;9169;44.492;11.372;2023-08-12T13:33:03;47.80;25.40
18085;DHT22;9169;44.492;11.372;2023-08-12T13:35:32;48.00;25.00
18085;DHT22;9169;44.492;11.372;2023-08-12T13:38:02;48.20;25.00
18085;DHT22;9169;44.492;11.372;2023-08-12T13:40:31;48.40;25.00
18085;DHT22;9169;44.492;11.372;2023-08-12T13:42:59;48.50;25.10
18085;DHT22;9169;44.492;11.372;2023-08-12T13:45:28;48.60;25.00
18085;DHT22;9169;44.492;11.372;2023-08-12T13:47:57;48.80;25.20
18085;DHT22;9169;44.492;11.372;2023-08-12T13:50:26;48.90;25.00
18085;DHT22;9169;44.492;11.372;2023-08-12T13:52:55;49.10;24.90
18085;DHT22;9169;44.492;11.372;2023-08-12T13:55:25;49.20;25.00
18085;DHT22;9169;44.492;11.372;2023-08-12T13:57:54;49.30;24.60
18085;DHT22;9169;44.492;11.372;2023-08-12T14:00:22;49.40;24.60
18085;DHT22;9169;44.492;11.372;2023-08-12T14:02:51;49.30;24.40
18085;DHT22;9169;44.492;11.372;2023-08-12T14:05:20;49.10;24.50
18085;DHT22;9169;44.492;11.372;2023-08-12T14:07:49;49.10;24.40
18085;DHT22;9169;44.492;11.372;2023-08-12T14:10:17;49.00;24.40
18085;DHT22;9169;44.492;11.372;2023-08-12T14:12:47;49.00;24.40
18085;DHT22;9169;44.492;11.372;2023-08-12T14:15:18;48.80;24.10
18085;DHT22;9169;44.492;11.372;2023-08-12T14:17:46;48.40;24.20
18085;DHT22;9169;44.492;11.372;2023-08-12T14:20:15;47.70;24.40
18085;DHT22;9169;44.492;11.372;2023-08-12T14:22:44;47.10;24.70
18085;DHT22;9169;44.492;11.372;2023-08-12T14:25:12;46.80;25.10
18085;DHT22;9169;44.492;11.372;2023-08-12T14:27:41;46.40;25.10
18085;DHT22;9169;44.492;11.372;2023-08-12T14:30:12;45.80;25.10
18085;DHT22;9169;44.492;11.372;2023-08-12T14:32:41;45.20;25.20
18085;DHT22;9169;44.492;11.372;2023-08-12T14:35:09;44.70;25.30
18085;DHT22;9169;44.492;11.372;2023-08-12T14:37:38;44.20;25.60
18085;DHT22;9169;44.492;11.372;2023-08-12T14:40:08;43.70;25.90
18085;DHT22;9169;44.492;11.372;2023-08-12T14:42:36;43.30;26.20
18085;DHT22;9169;44.492;11.372;2023-08-12T14:45:06;43.00;26.40
18085;DHT22;9169;44.492;11.372;2023-08-12T14:47:36;42.50;26.50
18085;DHT22;9169;44.492;11.372;2023-08-12T14:50:05;42.20;26.80
18085;DHT22;9169;44.492;11.372;2023-08-12T14:52:35;41.80;27.00
18085;DHT22;9169;44.492;11.372;2023-08-12T14:55:05;41.50;27.20
18085;DHT22;9169;44.492;11.372;2023-08-12T14:57:34;41.20;27.20
18085;DHT22;9169;44.492;11.372;2023-08-12T15:00:03;40.90;27.30
18085;DHT22;9169;44.492;11.372;2023-08-12T15:02:35;40.60;27.50
18085;DHT22;9169;44.492;11.372;2023-08-12T15:05:04;40.40;27.70
18085;DHT22;9169;44.492;11.372;2023-08-12T15:07:33;40.20;27.90
18085;DHT22;9169;44.492;11.372;2023-08-12T15:10:02;40.00;27.90
18085;DHT22;9169;44.492;11.372;2023-08-12T15:12:31;39.80;28.10
18085;DHT22;9169;44.492;11.372;2023-08-12T15:15:00;39.60;28.20
18085;DHT22;9169;44.492;11.372;2023-08-12T15:17:29;39.50;28.40
18085;DHT22;9169;44.492;11.372;2023-08-12T15:19:59;39.40;28.40
18085;DHT22;9169;44.492;11.372;2023-08-12T15:22:28;39.30;28.50
18085;DHT22;9169;44.492;11.372;2023-08-12T15:24:56;39.10;28.60
18085;DHT22;9169;44.492;11.372;2023-08-12T15:27:25;39.00;28.70
18085;DHT22;9169;44.492;11.372;2023-08-12T15:29:54;38.90;28.80
18085;DHT22;9169;44.492;11.372;2023-08-12T15:32:22;38.80;28.90
18085;DHT22;9169;44.492;11.372;2023-08-12T15:34:51;38.70;29.00
18085;DHT22;9169;44.492;11.372;2023-08-12T15:37:22;38.60;29.10
18085;DHT22;9169;44.492;11.372;2023-08-12T15:39:50;38.50;29.10
18085;DHT22;9169;44.492;11.372;2023-08-12T15:42:19;38.40;29.20
18085;DHT22;9169;44.492;11.372;2023-08-12T15:44:48;38.40;29.30